createdAt,value
2022-09-11T00:01:43.317Z,84.85
2022-09-11T00:04:11.395Z,85.01
2022-09-11T00:06:39.995Z,84.81
2022-09-11T00:09:08.451Z,84.27
2022-09-11T00:11:41.864Z,84.07
2022-09-11T00:14:13.936Z,84.01
2022-09-11T00:16:45.835Z,84.44
2022-09-11T00:19:16.758Z,84.52
2022-09-11T00:21:46.609Z,84.20
2022-09-11T00:24:14.729Z,84.28
2022-09-11T00:26:42.754Z,84.22
2022-09-11T00:29:10.843Z,83.83
2022-09-11T00:31:38.930Z,83.79
2022-09-11T00:34:07.343Z,83.40
2022-09-11T00:36:41.427Z,83.74
2022-09-11T00:39:11.767Z,84.28
2022-09-11T00:41:42.902Z,84.59
2022-09-11T00:44:13.693Z,84.37
2022-09-11T00:46:50.793Z,84.83
2022-09-11T00:49:46.454Z,84.56
2022-09-11T00:52:17.486Z,85.08
2022-09-11T00:55:00.109Z,85.14
2022-09-11T00:57:33.138Z,85.35
2022-09-11T01:00:02.489Z,85.41
2022-09-11T01:02:34.688Z,85.38
2022-09-11T01:05:04.576Z,85.37
2022-09-11T01:07:34.818Z,85.08
2022-09-11T01:10:05.734Z,85.06
2022-09-11T01:12:49.216Z,85.27
2022-09-11T01:15:36.078Z,84.85
2022-09-11T01:18:17.121Z,84.32
2022-09-11T01:20:57.011Z,84.46
2022-09-11T01:23:28.313Z,84.42
2022-09-11T01:26:02.350Z,84.29
2022-09-11T01:28:40.146Z,84.38
2022-09-11T01:31:16.264Z,84.58
2022-09-11T01:33:51.059Z,84.97
2022-09-11T01:36:29.011Z,84.51
2022-09-11T01:39:03.907Z,84.73
2022-09-11T01:41:46.197Z,84.64
2022-09-11T01:44:28.970Z,84.85
2022-09-11T01:46:58.871Z,84.77
2022-09-11T01:49:42.170Z,84.32
2022-09-11T01:52:15.270Z,84.48
2022-09-11T01:54:50.067Z,84.65
2022-09-11T01:57:30.634Z,84.78
2022-09-11T02:00:02.450Z,84.73
2022-09-11T02:02:37.140Z,84.92
2022-09-11T02:05:24.116Z,85.17
2022-09-11T02:08:01.766Z,85.22
2022-09-11T02:10:36.958Z,85.12
2022-09-11T02:13:34.744Z,85.02
2022-09-11T02:16:32.332Z,85.16
2022-09-11T02:19:06.613Z,85.20
2022-09-11T02:21:35.866Z,85.47
2022-09-11T02:24:04.869Z,85.86
2022-09-11T02:26:38.808Z,85.88
2022-09-11T02:29:08.248Z,85.84
2022-09-11T02:31:36.720Z,85.99
2022-09-11T02:34:04.764Z,85.74
2022-09-11T02:36:39.221Z,85.59
2022-09-11T02:39:37.678Z,85.52
2022-09-11T02:42:41.097Z,85.58
2022-09-11T02:45:31.332Z,85.90
2022-09-11T02:48:02.241Z,86.01
2022-09-11T02:50:47.113Z,86.28
2022-09-11T02:53:26.757Z,86.36
2022-09-11T02:57:09.894Z,86.04
2022-09-11T02:59:48.767Z,86.28
2022-09-11T03:02:18.524Z,86.31
2022-09-11T03:04:48.743Z,85.79
2022-09-11T03:07:16.871Z,86.21
2022-09-11T03:09:46.009Z,86.61
2022-09-11T03:12:18.867Z,86.26
2022-09-11T03:14:49.744Z,86.62
2022-09-11T03:17:17.783Z,86.38
2022-09-11T03:19:46.481Z,86.62
2022-09-11T03:22:15.036Z,86.77
2022-09-11T03:24:43.620Z,86.93
2022-09-11T03:27:12.032Z,86.74
2022-09-11T03:29:41.015Z,86.31
2022-09-11T03:32:10.353Z,86.49
2022-09-11T03:34:38.907Z,86.61
2022-09-11T03:37:06.828Z,86.74
2022-09-11T03:39:35.128Z,86.51
2022-09-11T03:42:03.275Z,86.46
2022-09-11T03:44:31.412Z,86.26
2022-09-11T03:47:00.379Z,86.05
2022-09-11T03:49:28.426Z,85.92
2022-09-11T03:51:57.239Z,85.84
2022-09-11T03:54:25.296Z,85.72
2022-09-11T03:56:53.582Z,85.60
2022-09-11T03:59:21.898Z,85.51
2022-09-11T04:01:51.039Z,85.64
2022-09-11T04:04:20.667Z,85.66
2022-09-11T04:06:48.732Z,85.97
2022-09-11T04:09:17.944Z,86.08
2022-09-11T04:11:49.076Z,86.05
2022-09-11T04:14:22.710Z,85.93
2022-09-11T04:16:51.321Z,86.01
2022-09-11T04:19:21.335Z,86.40
2022-09-11T04:21:49.450Z,86.26
2022-09-11T04:24:17.526Z,86.82
2022-09-11T04:26:47.180Z,86.86
2022-09-11T04:29:26.709Z,86.98
2022-09-11T04:31:56.328Z,87.23
2022-09-11T04:34:26.574Z,87.53
2022-09-11T04:36:56.340Z,87.38
2022-09-11T04:39:26.817Z,87.56
2022-09-11T04:41:55.417Z,87.63
2022-09-11T04:44:26.383Z,87.51
2022-09-11T04:46:56.580Z,87.80
2022-09-11T04:49:25.019Z,87.51
2022-09-11T04:51:53.112Z,87.67
2022-09-11T04:54:22.363Z,87.83
2022-09-11T04:56:51.649Z,87.57
2022-09-11T04:59:22.625Z,87.83
2022-09-11T05:02:11.003Z,87.93
2022-09-11T05:04:41.960Z,87.91
2022-09-11T05:07:14.612Z,88.17
2022-09-11T05:09:44.231Z,87.98
2022-09-11T05:12:12.334Z,88.16
2022-09-11T05:14:43.068Z,88.19
2022-09-11T05:17:13.633Z,88.31
2022-09-11T05:19:43.566Z,88.32
2022-09-11T05:22:12.013Z,88.41
2022-09-11T05:24:42.886Z,88.71
2022-09-11T05:27:12.046Z,88.66
2022-09-11T05:29:41.428Z,88.71
2022-09-11T05:32:13.007Z,88.53
2022-09-11T05:34:42.890Z,88.11
2022-09-11T05:37:12.709Z,87.56
2022-09-11T05:39:44.491Z,87.87
2022-09-11T05:42:17.487Z,87.42
2022-09-11T05:44:49.376Z,86.90
2022-09-11T05:47:17.841Z,86.92
2022-09-11T05:49:49.868Z,86.98
2022-09-11T05:52:20.383Z,87.14
2022-09-11T05:54:50.098Z,86.52
2022-09-11T05:57:20.064Z,86.36
2022-09-11T05:59:48.370Z,86.07
2022-09-11T06:02:16.581Z,85.91
2022-09-11T06:04:48.300Z,85.13
2022-09-11T06:07:16.278Z,84.85
2022-09-11T06:09:46.804Z,84.93
2022-09-11T06:12:14.817Z,84.38
2022-09-11T06:14:44.551Z,84.66
2022-09-11T06:17:13.014Z,84.56
2022-09-11T06:19:40.983Z,84.04
2022-09-11T06:22:09.152Z,84.56
2022-09-11T06:24:48.198Z,84.58
2022-09-11T06:27:18.477Z,84.35
2022-09-11T06:29:47.475Z,83.95
2022-09-11T06:32:20.062Z,83.76
2022-09-11T06:34:48.468Z,83.52
2022-09-11T06:37:17.004Z,83.32
2022-09-11T06:39:46.409Z,83.13
2022-09-11T06:42:19.430Z,81.97
2022-09-11T06:44:50.984Z,80.76
2022-09-11T06:47:19.468Z,80.98
2022-09-11T06:49:47.671Z,80.89
2022-09-11T06:52:34.704Z,80.56
2022-09-11T06:55:23.004Z,79.73
2022-09-11T06:57:58.713Z,79.31
2022-09-11T07:00:28.754Z,78.86
2022-09-11T07:02:57.224Z,78.48
2022-09-11T07:05:26.109Z,78.93
2022-09-11T07:07:55.624Z,78.89
2022-09-11T07:10:24.774Z,78.61
2022-09-11T07:12:58.203Z,78.61
2022-09-11T07:15:26.269Z,78.25
2022-09-11T07:17:55.510Z,77.36
2022-09-11T07:20:23.698Z,76.43
2022-09-11T07:22:51.841Z,75.79
2022-09-11T07:25:20.716Z,74.94
2022-09-11T07:27:49.726Z,75.31
2022-09-11T07:30:18.712Z,74.35
2022-09-11T07:32:50.143Z,72.37
2022-09-11T07:35:22.320Z,71.46
2022-09-11T07:37:52.962Z,71.10
2022-09-11T07:40:24.844Z,70.49
2022-09-11T07:42:54.140Z,68.48
2022-09-11T07:45:23.509Z,68.00
2022-09-11T07:47:52.064Z,68.37
2022-09-11T07:50:20.118Z,68.38
2022-09-11T07:52:48.575Z,66.32
2022-09-11T07:55:17.146Z,66.51
2022-09-11T07:57:46.673Z,65.22
2022-09-11T08:00:16.671Z,64.30
2022-09-11T08:02:58.214Z,64.54
2022-09-11T08:05:31.485Z,65.79
2022-09-11T08:07:59.795Z,64.71
2022-09-11T08:10:28.652Z,63.59
2022-09-11T08:12:59.805Z,61.70
2022-09-11T08:15:32.287Z,61.29
2022-09-11T08:18:01.163Z,60.31
2022-09-11T08:20:32.219Z,60.61
2022-09-11T08:23:00.662Z,60.86
2022-09-11T08:25:29.734Z,60.16
2022-09-11T08:27:58.244Z,59.61
2022-09-11T08:30:27.002Z,59.87
2022-09-11T08:32:55.339Z,60.15
2022-09-11T08:35:23.692Z,59.20
2022-09-11T08:37:55.150Z,59.05
2022-09-11T08:40:23.901Z,59.24
2022-09-11T08:42:55.767Z,58.72
2022-09-11T08:45:30.055Z,57.44
2022-09-11T08:48:01.582Z,57.16
2022-09-11T08:50:41.410Z,58.48
2022-09-11T08:53:16.429Z,57.41
2022-09-11T08:55:52.967Z,57.01
2022-09-11T08:58:37.250Z,56.82
2022-09-11T09:01:12.789Z,56.25
2022-09-11T09:03:47.558Z,56.45
2022-09-11T09:06:27.063Z,56.88
2022-09-11T09:09:08.429Z,57.09
2022-09-11T09:11:47.508Z,56.39
2022-09-11T09:14:44.808Z,57.74
2022-09-11T09:17:20.206Z,56.85
2022-09-11T09:20:00.612Z,56.22
2022-09-11T09:22:47.195Z,56.79
2022-09-11T09:25:20.971Z,56.72
2022-09-11T09:28:02.158Z,57.06
2022-09-11T09:30:42.842Z,57.40
2022-09-11T09:33:29.289Z,58.28
2022-09-11T09:36:00.165Z,58.62
2022-09-11T09:38:31.763Z,58.52
2022-09-11T09:41:18.449Z,58.21
2022-09-11T09:44:17.724Z,56.83
2022-09-11T09:46:52.154Z,57.63
2022-09-11T09:49:33.493Z,58.03
2022-09-11T09:52:12.384Z,57.23
2022-09-11T09:54:40.776Z,56.57
2022-09-11T09:57:11.957Z,56.90
2022-09-11T10:00:15.544Z,55.61
2022-09-11T10:02:43.465Z,55.97
2022-09-11T10:05:23.350Z,57.32
2022-09-11T10:08:00.280Z,56.34
2022-09-11T10:10:32.507Z,55.77
2022-09-11T10:13:25.710Z,54.93
2022-09-11T10:15:59.887Z,54.57
2022-09-11T10:18:45.415Z,53.38
2022-09-11T10:21:13.414Z,51.89
2022-09-11T10:23:50.753Z,51.82
2022-09-11T10:26:32.500Z,50.43
2022-09-11T10:29:29.367Z,50.96
2022-09-11T10:32:03.163Z,49.77
2022-09-11T10:34:40.782Z,49.42
2022-09-11T10:37:20.965Z,49.99
2022-09-11T10:39:49.855Z,50.37
2022-09-11T10:42:27.863Z,50.44
2022-09-11T10:45:17.053Z,49.84
2022-09-11T10:47:53.778Z,49.87
2022-09-11T10:50:25.004Z,49.85
2022-09-11T10:53:04.558Z,49.17
2022-09-11T10:55:38.077Z,49.23
2022-09-11T10:58:11.354Z,49.71
2022-09-11T11:00:39.589Z,48.11
2022-09-11T11:03:12.671Z,48.17
2022-09-11T11:05:40.596Z,46.61
2022-09-11T11:08:37.751Z,46.78
2022-09-11T11:11:14.999Z,47.18
2022-09-11T11:14:02.044Z,48.05
2022-09-11T11:17:00.063Z,48.05
2022-09-11T11:19:44.285Z,48.00
2022-09-11T11:22:22.440Z,47.39
2022-09-11T11:25:41.739Z,47.78
2022-09-11T11:28:49.080Z,47.11
2022-09-11T11:31:47.765Z,46.92
2022-09-11T11:34:30.892Z,47.59
2022-09-11T11:37:25.614Z,47.83
2022-09-11T11:39:59.395Z,46.71
2022-09-11T11:42:35.234Z,46.85
2022-09-11T11:45:10.303Z,46.32
2022-09-11T11:47:43.136Z,45.91
2022-09-11T11:50:20.348Z,45.67
2022-09-11T11:53:07.561Z,45.60
2022-09-11T11:55:49.436Z,47.01
2022-09-11T11:58:37.352Z,47.37
2022-09-11T12:01:15.226Z,46.69
2022-09-11T12:03:51.260Z,47.16
2022-09-11T12:06:19.493Z,46.20
2022-09-11T12:08:48.524Z,45.80
2022-09-11T12:11:26.925Z,44.77
2022-09-11T12:13:56.160Z,45.48
2022-09-11T12:16:32.404Z,46.02
2022-09-11T12:19:19.999Z,46.50
2022-09-11T12:21:54.273Z,46.30
2022-09-11T12:24:47.386Z,46.66
2022-09-11T12:27:33.357Z,46.73
2022-09-11T12:30:20.513Z,46.25
2022-09-11T12:32:51.773Z,45.40
2022-09-11T12:35:38.710Z,45.39
2022-09-11T12:38:06.695Z,44.83
2022-09-11T12:40:53.600Z,45.05
2022-09-11T12:43:36.539Z,45.60
2022-09-11T12:46:13.061Z,45.36
2022-09-11T12:49:22.211Z,45.47
2022-09-11T12:51:59.570Z,46.11
2022-09-11T12:54:33.774Z,46.25
2022-09-11T12:57:07.384Z,45.67
2022-09-11T12:59:39.259Z,45.56
2022-09-11T13:02:31.514Z,45.78
2022-09-11T13:05:00.882Z,46.07
2022-09-11T13:07:43.240Z,45.93
2022-09-11T13:10:33.800Z,45.31
2022-09-11T13:13:07.506Z,45.17
2022-09-11T13:15:38.514Z,44.16
2022-09-11T13:18:34.434Z,44.17
2022-09-11T13:21:26.300Z,44.21
2022-09-11T13:24:00.394Z,44.20
2022-09-11T13:26:33.141Z,43.84
2022-09-11T13:29:02.054Z,43.69
2022-09-11T13:31:36.335Z,44.35
2022-09-11T13:34:12.215Z,44.45
2022-09-11T13:36:40.863Z,44.22
2022-09-11T13:39:10.411Z,44.16
2022-09-11T13:41:47.027Z,44.25
2022-09-11T13:44:35.541Z,43.53
2022-09-11T13:47:06.480Z,44.97
2022-09-11T13:49:37.507Z,44.85
2022-09-11T13:52:07.110Z,44.72
2022-09-11T13:54:41.438Z,45.07
2022-09-11T13:57:17.489Z,45.16
2022-09-11T13:59:49.146Z,44.47
2022-09-11T14:02:29.097Z,45.11
2022-09-11T14:05:21.145Z,43.76
2022-09-11T14:07:56.109Z,44.57
2022-09-11T14:10:30.680Z,44.93
2022-09-11T14:13:12.652Z,45.55
2022-09-11T14:15:44.787Z,45.08
2022-09-11T14:18:40.947Z,44.98
2022-09-11T14:21:16.130Z,45.72
2022-09-11T14:23:50.126Z,46.41
2022-09-11T14:26:20.818Z,46.18
2022-09-11T14:29:01.118Z,46.09
2022-09-11T14:31:38.270Z,45.82
2022-09-11T14:34:09.781Z,46.17
2022-09-11T14:37:05.688Z,46.23
2022-09-11T14:39:36.830Z,46.90
2022-09-11T14:42:10.372Z,47.47
2022-09-11T14:44:40.572Z,47.29
2022-09-11T14:47:29.186Z,46.82
2022-09-11T14:50:01.089Z,46.36
2022-09-11T14:52:30.346Z,46.08
2022-09-11T14:54:59.444Z,45.50
2022-09-11T14:57:32.590Z,46.16
2022-09-11T15:00:00.563Z,46.07
2022-09-11T15:02:29.515Z,46.51
2022-09-11T15:04:58.375Z,46.57
2022-09-11T15:07:27.762Z,46.21
2022-09-11T15:09:55.888Z,46.45
2022-09-11T15:12:23.903Z,46.96
2022-09-11T15:14:57.106Z,47.04
2022-09-11T15:17:31.602Z,46.45
2022-09-11T15:20:00.846Z,46.52
2022-09-11T15:22:29.243Z,47.10
2022-09-11T15:25:00.250Z,47.80
2022-09-11T15:27:28.376Z,47.75
2022-09-11T15:29:56.437Z,47.91
2022-09-11T15:32:24.611Z,48.65
2022-09-11T15:34:54.944Z,48.78
2022-09-11T15:37:24.423Z,48.61
2022-09-11T15:39:53.046Z,49.08
2022-09-11T15:42:21.089Z,49.69
2022-09-11T15:44:50.877Z,49.69
2022-09-11T15:47:18.990Z,50.42
2022-09-11T15:49:49.983Z,50.19
2022-09-11T15:52:18.066Z,50.53
2022-09-11T15:54:47.673Z,50.46
2022-09-11T15:57:16.814Z,51.15
2022-09-11T15:59:45.601Z,51.04
2022-09-11T16:02:13.794Z,51.30
2022-09-11T16:04:42.222Z,51.27
2022-09-11T16:07:10.200Z,51.12
2022-09-11T16:09:38.600Z,51.33
2022-09-11T16:12:07.998Z,51.49
2022-09-11T16:14:38.738Z,51.48
2022-09-11T16:17:08.301Z,51.71
2022-09-11T16:19:36.521Z,52.18
2022-09-11T16:22:06.220Z,52.47
2022-09-11T16:24:37.822Z,53.11
2022-09-11T16:27:08.624Z,53.20
2022-09-11T16:30:15.609Z,53.43
2022-09-11T16:32:32.001Z,53.88
2022-09-11T16:35:00.261Z,54.13
2022-09-11T16:37:28.649Z,54.62
2022-09-11T16:39:56.812Z,55.23
2022-09-11T16:42:26.290Z,55.22
2022-09-11T16:44:54.328Z,55.38
2022-09-11T16:47:23.078Z,55.42
2022-09-11T16:50:06.507Z,55.37
2022-09-11T16:52:36.027Z,55.38
2022-09-11T16:55:06.752Z,55.71
2022-09-11T16:57:35.097Z,55.86
2022-09-11T17:00:05.432Z,56.53
2022-09-11T17:02:34.466Z,56.75
2022-09-11T17:05:02.499Z,56.66
2022-09-11T17:07:32.233Z,56.89
2022-09-11T17:10:00.287Z,57.11
2022-09-11T17:12:28.317Z,57.85
2022-09-11T17:14:56.446Z,58.30
2022-09-11T17:17:24.335Z,59.04
2022-09-11T17:19:52.288Z,59.12
2022-09-11T17:22:20.304Z,59.31
2022-09-11T17:24:48.382Z,59.82
2022-09-11T17:27:16.657Z,60.12
2022-09-11T17:29:45.234Z,60.53
2022-09-11T17:32:29.129Z,60.46
2022-09-11T17:34:58.712Z,60.87
2022-09-11T17:37:28.288Z,60.63
2022-09-11T17:39:56.536Z,60.86
2022-09-11T17:42:26.685Z,61.04
2022-09-11T17:44:54.990Z,61.19
2022-09-11T17:47:23.180Z,60.89
2022-09-11T17:49:51.206Z,61.20
2022-09-11T17:52:20.421Z,61.55
2022-09-11T17:54:49.183Z,61.78
2022-09-11T17:57:18.127Z,62.43
2022-09-11T17:59:51.838Z,62.89
2022-09-11T18:02:20.134Z,63.08
2022-09-11T18:04:48.361Z,63.41
2022-09-11T18:07:17.981Z,63.63
2022-09-11T18:09:46.029Z,64.01
2022-09-11T18:12:14.979Z,64.15
2022-09-11T18:14:43.384Z,64.46
2022-09-11T18:17:11.484Z,64.65
2022-09-11T18:19:39.534Z,65.01
2022-09-11T18:22:07.487Z,65.58
2022-09-11T18:24:35.504Z,65.27
2022-09-11T18:27:03.789Z,65.16
2022-09-11T18:29:31.992Z,65.72
2022-09-11T18:32:00.549Z,66.28
2022-09-11T18:34:28.729Z,66.06
2022-09-11T18:36:57.126Z,65.44
2022-09-11T18:39:25.988Z,65.96
2022-09-11T18:41:54.176Z,65.95
2022-09-11T18:44:25.327Z,66.31
2022-09-11T18:46:54.424Z,66.17
2022-09-11T18:49:23.591Z,66.11
2022-09-11T18:51:52.154Z,66.51
2022-09-11T18:54:21.479Z,66.54
2022-09-11T18:56:50.695Z,65.84
2022-09-11T18:59:20.358Z,65.60
2022-09-11T19:01:48.804Z,65.43
2022-09-11T19:04:17.308Z,65.55
2022-09-11T19:06:46.751Z,65.96
2022-09-11T19:09:14.929Z,65.89
2022-09-11T19:11:43.120Z,65.66
2022-09-11T19:14:13.018Z,66.36
2022-09-11T19:16:41.365Z,66.53
2022-09-11T19:19:10.226Z,66.36
2022-09-11T19:21:38.592Z,67.09
2022-09-11T19:24:07.829Z,66.81
2022-09-11T19:26:39.260Z,66.67
2022-09-11T19:29:08.988Z,66.78
2022-09-11T19:31:39.603Z,67.19
2022-09-11T19:34:12.082Z,67.65
2022-09-11T19:36:41.449Z,67.45
2022-09-11T19:39:10.535Z,67.55
2022-09-11T19:41:39.723Z,67.91
2022-09-11T19:44:12.250Z,68.01
2022-09-11T19:46:41.767Z,68.32
2022-09-11T19:49:11.411Z,67.97
2022-09-11T19:51:42.533Z,67.99
2022-09-11T19:54:14.463Z,68.17
2022-09-11T19:56:44.562Z,67.75
2022-09-11T19:59:14.486Z,68.32
2022-09-11T20:01:43.435Z,68.52
2022-09-11T20:04:12.490Z,68.46
2022-09-11T20:06:40.621Z,69.05
2022-09-11T20:11:57.556Z,69.57
2022-09-11T20:14:26.186Z,69.78
2022-09-11T20:16:54.102Z,70.14
2022-09-11T20:19:22.219Z,70.23
2022-09-11T20:21:50.709Z,70.34
2022-09-11T20:24:20.070Z,70.02
2022-09-11T20:26:48.082Z,69.78
2022-09-11T20:29:16.342Z,70.29
2022-09-11T20:31:47.834Z,70.13
2022-09-11T20:34:22.099Z,70.57
2022-09-11T20:36:50.137Z,70.45
2022-09-11T20:39:20.675Z,70.55
2022-09-11T20:41:48.663Z,70.89
2022-09-11T20:44:17.231Z,71.31
2022-09-11T20:46:47.612Z,71.56
2022-09-11T20:49:16.310Z,71.70
2022-09-11T20:51:44.310Z,72.10
2022-09-11T20:54:12.460Z,72.14
2022-09-11T20:56:40.481Z,72.68
2022-09-11T20:59:08.388Z,72.70
2022-09-11T21:01:36.437Z,72.89
2022-09-11T21:04:05.359Z,72.86
2022-09-11T21:06:35.553Z,72.73
2022-09-11T21:09:07.583Z,72.66
2022-09-11T21:11:37.282Z,73.05
2022-09-11T21:14:06.659Z,72.78
2022-09-11T21:16:34.784Z,72.64
2022-09-11T21:19:05.375Z,72.86
2022-09-11T21:21:35.942Z,72.98
2022-09-11T21:24:06.267Z,72.89
2022-09-11T21:26:35.193Z,72.71
2022-09-11T21:29:07.300Z,72.97
2022-09-11T21:31:38.521Z,73.03
2022-09-11T21:34:06.655Z,73.27
2022-09-11T21:36:36.007Z,73.47
2022-09-11T21:39:04.929Z,73.57
2022-09-11T21:41:32.963Z,73.84
2022-09-11T21:44:01.154Z,73.71
2022-09-11T21:46:29.104Z,73.91
2022-09-11T21:48:57.103Z,74.02
2022-09-11T21:51:25.139Z,74.57
2022-09-11T21:53:59.023Z,74.75
2022-09-11T21:56:30.466Z,75.01
2022-09-11T21:58:59.740Z,75.23
2022-09-11T22:01:29.031Z,75.40
2022-09-11T22:03:58.375Z,75.52
2022-09-11T22:06:27.273Z,75.38
2022-09-11T22:08:56.303Z,75.21
2022-09-11T22:11:25.993Z,75.58
2022-09-11T22:13:54.994Z,75.78
2022-09-11T22:16:23.642Z,76.24
2022-09-11T22:18:53.774Z,76.45
2022-09-11T22:21:21.972Z,76.36
2022-09-11T22:23:50.214Z,76.54
2022-09-11T22:26:21.428Z,76.64
2022-09-11T22:28:49.913Z,76.87
2022-09-11T22:31:24.555Z,76.54
2022-09-11T22:33:54.263Z,76.72
2022-09-11T22:36:28.356Z,76.61
2022-09-11T22:38:56.732Z,76.49
2022-09-11T22:41:26.190Z,76.73
2022-09-11T22:43:54.308Z,76.71
2022-09-11T22:46:23.983Z,76.88
2022-09-11T22:48:53.427Z,76.90
2022-09-11T22:51:22.170Z,76.94
2022-09-11T22:53:51.112Z,76.74
2022-09-11T22:56:19.095Z,77.00
2022-09-11T22:58:47.698Z,77.16
2022-09-11T23:01:21.705Z,76.65
2022-09-11T23:03:52.704Z,76.87
2022-09-11T23:06:40.552Z,76.85
2022-09-11T23:09:13.402Z,76.85
2022-09-11T23:11:41.450Z,77.07
2022-09-11T23:14:14.156Z,77.08
2022-09-11T23:16:42.981Z,77.38
2022-09-11T23:19:14.076Z,77.07
2022-09-11T23:21:42.533Z,77.12
2022-09-11T23:24:14.543Z,77.21
2022-09-11T23:26:44.164Z,77.13
2022-09-11T23:29:13.041Z,77.43
2022-09-11T23:31:41.656Z,77.81
2022-09-11T23:34:14.068Z,77.63
2022-09-11T23:36:42.485Z,77.36
2022-09-11T23:39:10.613Z,77.72
2022-09-11T23:41:39.258Z,77.64
2022-09-11T23:44:07.668Z,77.73
2022-09-11T23:46:35.664Z,77.94
2022-09-11T23:49:04.142Z,77.94
2022-09-11T23:51:32.156Z,77.62
2022-09-11T23:54:00.096Z,77.74
2022-09-11T23:56:28.171Z,77.54
2022-09-11T23:58:56.154Z,77.36
